地図

経路データ

SID SEASON NUMBER BASIN SUBBASIN NAME ISO_TIME NATURE LAT LON WMO_WIND WMO_PRES WMO_AGENCY TRACK_TYPE DIST2LAND LANDFALL IFLAG USA_AGENCY USA_ATCF_ID USA_LAT USA_LON USA_RECORD USA_STATUS USA_WIND USA_PRES USA_SSHS USA_R34_NE USA_R34_SE USA_R34_SW USA_R34_NW USA_R50_NE USA_R50_SE USA_R50_SW USA_R50_NW USA_R64_NE USA_R64_SE USA_R64_SW USA_R64_NW USA_POCI USA_ROCI USA_RMW USA_EYE TOKYO_LAT TOKYO_LON TOKYO_GRADE TOKYO_WIND TOKYO_PRES TOKYO_R50_DIR TOKYO_R50_LONG TOKYO_R50_SHORT TOKYO_R30_DIR TOKYO_R30_LONG TOKYO_R30_SHORT TOKYO_LAND CMA_LAT CMA_LON CMA_CAT CMA_WIND CMA_PRES HKO_LAT HKO_LON HKO_CAT HKO_WIND HKO_PRES NEWDELHI_LAT NEWDELHI_LON NEWDELHI_GRADE NEWDELHI_WIND NEWDELHI_PRES NEWDELHI_CI NEWDELHI_DP NEWDELHI_POCI REUNION_LAT REUNION_LON REUNION_TYPE REUNION_WIND REUNION_PRES REUNION_TNUM REUNION_CI REUNION_RMW REUNION_R34_NE REUNION_R34_SE REUNION_R34_SW REUNION_R34_NW REUNION_R50_NE REUNION_R50_SE REUNION_R50_SW REUNION_R50_NW REUNION_R64_NE REUNION_R64_SE REUNION_R64_SW REUNION_R64_NW BOM_LAT BOM_LON BOM_TYPE BOM_WIND BOM_PRES BOM_TNUM BOM_CI BOM_RMW BOM_R34_NE BOM_R34_SE BOM_R34_SW BOM_R34_NW BOM_R50_NE BOM_R50_SE BOM_R50_SW BOM_R50_NW BOM_R64_NE BOM_R64_SE BOM_R64_SW BOM_R64_NW BOM_ROCI BOM_POCI BOM_EYE BOM_POS_METHOD BOM_PRES_METHOD NADI_LAT NADI_LON NADI_CAT NADI_WIND NADI_PRES WELLINGTON_LAT WELLINGTON_LON WELLINGTON_WIND WELLINGTON_PRES DS824_LAT DS824_LON DS824_STAGE DS824_WIND DS824_PRES TD9636_LAT TD9636_LON TD9636_STAGE TD9636_WIND TD9636_PRES TD9635_LAT TD9635_LON TD9635_WIND TD9635_PRES TD9635_ROCI NEUMANN_LAT NEUMANN_LON NEUMANN_CLASS NEUMANN_WIND NEUMANN_PRES MLC_LAT MLC_LON MLC_CLASS MLC_WIND MLC_PRES USA_GUST BOM_GUST BOM_GUST_PER REUNION_GUST REUNION_GUST_PER USA_SEAHGT USA_SEARAD_NE USA_SEARAD_SE USA_SEARAD_SW USA_SEARAD_NW STORM_SPEED STORM_DIR
1915045S19038 1915 4 SI MM NOT_NAMED 1915-02-14 06:00:00 NR -19.0000 37.5000 reunion main 109 109 _____O________ -1 -19.0000 37.5000 99 9.90000 14 130
1915045S19038 1915 4 SI MM NOT_NAMED 1915-02-14 09:00:00 NR -19.4595 38.0876 main 192 192 _____P________ -1 -19.4595 38.0876 99 14 129
1915045S19038 1915 4 SI MM NOT_NAMED 1915-02-14 12:00:00 NR -19.9110 38.6731 main 268 268 _____P________ -1 -19.9110 38.6731 99 14 129
1915045S19038 1915 4 SI MM NOT_NAMED 1915-02-14 15:00:00 NR -20.3481 39.2506 main 344 344 _____P________ -1 -20.3481 39.2506 99 15 132
1915045S19038 1915 4 SI MM NOT_NAMED 1915-02-14 18:00:00 NR -20.9316 39.8711 main 370 315 _____P____O___ -1 -20.7645 39.8139 99 -21.6000 40.1000 4 14 134
1915045S19038 1915 4 SI MM NOT_NAMED 1915-02-14 21:00:00 NR -21.3260 40.3421 main 315 256 _____P____P___ -1 -21.1539 40.3569 99 -21.6703 40.3124 4 11 130
1915045S19038 1915 4 SI MM NOT_NAMED 1915-02-15 00:00:00 TS -21.6460 40.7766 main 256 221 _____P___OP___ -1 -21.5103 40.8732 99 -21.9000 41.1000 TC 65 -21.7424 40.5399 4 9 125
1915045S19038 1915 4 SI MM NOT_NAMED 1915-02-15 03:00:00 TS -21.8589 41.1615 main 208 176 _____P___PP___ -1 -21.8276 41.3564 99 -22.0027 41.4999 TC 65 -21.8183 40.7975 4 8 117
1915045S19038 1915 4 SI MM NOT_NAMED 1915-02-15 06:00:00 TS -22.0273 41.5727 reunion main 166 123 _____O___OO___ -1 -22.1000 41.8000 99 9.90000 -22.1000 41.9000 TC 65 -21.9000 41.1000 4 8 112
1915045S19038 1915 4 SI MM NOT_NAMED 1915-02-15 09:00:00 TS -22.1684 41.9856 main 123 82 _____P___PP___ -1 -22.3239 42.1998 99 -22.1924 42.3001 TC 65 -21.9889 41.4569 4 8 110
1915045S19038 1915 4 SI MM NOT_NAMED 1915-02-15 12:00:00 TS -22.2967 42.3718 main 82 52 _____P___OP___ -1 -22.5048 42.5604 99 -22.3000 42.7000 TC 65 -22.0852 41.8551 4 8 110
1915045S19038 1915 4 SI MM NOT_NAMED 1915-02-15 15:00:00 TS -22.4296 42.7549 main 42 20 _____P___PP___ -1 -22.6501 42.8888 99 -22.4499 43.1000 TC 65 -22.1888 42.2757 4 7 110
1915045S19038 1915 4 SI MM NOT_NAMED 1915-02-15 18:00:00 TS -22.5557 43.1307 main 23 0 _____P___OO___ -1 -22.7672 43.1922 99 -22.6000 43.5000 TC 65 -22.3000 42.7000 4 7 109
1915045S19038 1915 4 SI MM NOT_NAMED 1915-02-15 21:00:00 TS -22.6642 43.4978 main 0 0 _____P___PP___ -1 -22.8635 43.4776 99 -22.7075 43.9076 TC 65 -22.4217 43.1081 4 7 107
1915045S19038 1915 4 SI MM NOT_NAMED 1915-02-16 00:00:00 TS -22.7654 43.8558 main 0 0 _____P___OP___ -1 -22.9463 43.7525 99 -22.8000 44.3000 TC 65 -22.5498 43.5149 4 7 107
1915045S19038 1915 4 SI MM NOT_NAMED 1915-02-16 03:00:00 TS -22.8669 44.1987 main 0 0 _____P___PP___ -1 -23.0227 44.0242 99 -22.8999 44.6576 TC 65 -22.6780 43.9143 4 7 108
1915045S19038 1915 4 SI MM NOT_NAMED 1915-02-16 06:00:00 TS -22.9667 44.5333 reunion main 0 0 _____O___OO___ -1 -23.1000 44.3000 99 9.90000 -23.0000 45.0000 TC 65 -22.8000 44.3000 4 7 109
1915045S19038 1915 4 SI MM NOT_NAMED 1915-02-16 09:00:00 TS -23.0777 44.8829 main 0 0 _____P___PP___ -1 -23.2148 44.6185 99 -23.1075 45.3575 TC 65 -22.9110 44.6727 4 7 109
1915045S19038 1915 4 SI MM NOT_NAMED 1915-02-16 12:00:00 TS -23.1803 45.2226 main 0 0 _____P___OP___ -1 -23.3261 44.9375 99 -23.2000 45.7000 TC 65 -23.0147 45.0302 4 6 107
1915045S19038 1915 4 SI MM NOT_NAMED 1915-02-16 15:00:00 TS -23.2649 45.5454 main 0 0 _____P___PP___ -1 -23.4337 45.2560 99 -23.2499 46.0076 TC 65 -23.1110 45.3726 4 6 106
1915045S19038 1915 4 SI MM NOT_NAMED 1915-02-16 18:00:00 TS -23.3457 45.8576 main 0 0 _____P___OO___ -1 -23.5370 45.5728 99 -23.3000 46.3000 TC 65 -23.2000 45.7000 4 6 107
1915045S19038 1915 4 SI MM NOT_NAMED 1915-02-16 21:00:00 TS -23.4406 46.1775 main 0 0 _____P___PP___ -1 -23.6357 45.8868 99 -23.4000 46.6149 TC 65 -23.2861 46.0307 4 6 108
1915045S19038 1915 4 SI MM NOT_NAMED 1915-02-17 00:00:00 TS -23.5314 46.4806 main 0 0 _____P___OP___ -1 -23.7293 46.1967 99 -23.5000 46.9000 TC 65 -23.3649 46.3451 4 6 107
1915045S19038 1915 4 SI MM NOT_NAMED 1915-02-17 03:00:00 TS -23.6037 46.7512 main 0 0 _____P___PP___ -1 -23.8176 46.5015 99 -23.5574 47.1151 TC 65 -23.4362 46.6369 4 5 106
1915045S19038 1915 4 SI MM NOT_NAMED 1915-02-17 06:00:00 TS -23.6667 47.0000 reunion main 0 0 _____O___OO___ -1 -23.9000 46.8000 99 9.90000 -23.6000 47.3000 TC 65 -23.5000 46.9000 4 5 106
1915045S19038 1915 4 SI MM NOT_NAMED 1915-02-17 09:00:00 TS -23.7310 47.2463 main 0 0 _____P___PP___ -1 -23.9821 47.1140 99 -23.6500 47.5000 TC 65 -23.5609 47.1248 4 5 106
1915045S19038 1915 4 SI MM NOT_NAMED 1915-02-17 12:00:00 TS -23.7911 47.4824 main 0 0 _____P___OP___ -1 -24.0588 47.4246 99 -23.7000 47.7000 TC 65 -23.6146 47.3227 4 4 106
1915045S19038 1915 4 SI MM NOT_NAMED 1915-02-17 15:00:00 TS -23.8494 47.7099 main 20 20 _____P___PP___ -1 -24.1299 47.7279 99 -23.7574 47.8925 TC 65 -23.6610 47.5092 4 4 106
1915045S19038 1915 4 SI MM NOT_NAMED 1915-02-17 18:00:00 TS -23.9074 47.9255 main 40 40 _____P___OO___ -1 -24.1953 48.0201 99 -23.8000 48.1000 TC 65 -23.7000 47.7000 4 4 105
1915045S19038 1915 4 SI MM NOT_NAMED 1915-02-17 21:00:00 TS -23.9568 48.1499 main 60 60 _____P___PP___ -1 -24.2550 48.2973 99 -23.8101 48.3400 TC 65 -23.7319 47.9074 4 5 107
1915045S19038 1915 4 SI MM NOT_NAMED 1915-02-18 00:00:00 TS -24.0388 48.4015 main 91 91 _____P___OP___ -1 -24.3091 48.5556 99 -23.8000 48.6000 TC 65 -23.7580 48.1299 4 5 115
1915045S19038 1915 4 SI MM NOT_NAMED 1915-02-18 03:00:00 NR -24.1649 48.6483 main 113 113 _____P____P___ -1 -24.3574 48.7912 99 TC -23.7801 48.3624 4 5 117
1915045S19038 1915 4 SI MM NOT_NAMED 1915-02-18 06:00:00 NR -24.2800 48.9200 reunion main 145 145 _____O____O___ -1 -24.4000 49.0000 99 9.90000 -23.8000 48.6000 4 6 119
1915045S19038 1915 4 SI MM NOT_NAMED 1915-02-18 09:00:00 NR -24.4371 49.1795 main 178 178 _____P________ -1 -24.4371 49.1795 99 4 4 117
1915045S19038 1915 4 SI MM NOT_NAMED 1915-02-18 12:00:00 NR -24.4693 49.3323 main 190 190 _____P________ -1 -24.4693 49.3323 99 4 3 103
1915045S19038 1915 4 SI MM NOT_NAMED 1915-02-18 15:00:00 NR -24.4973 49.4620 main 210 210 _____P________ -1 -24.4973 49.4620 99 4 2 103
1915045S19038 1915 4 SI MM NOT_NAMED 1915-02-18 18:00:00 NR -24.5219 49.5726 main 219 219 _____P________ -1 -24.5219 49.5726 99 2 104
1915045S19038 1915 4 SI MM NOT_NAMED 1915-02-18 21:00:00 NR -24.5438 49.6679 main 229 229 _____P________ -1 -24.5438 49.6679 99 2 104
1915045S19038 1915 4 SI MM NOT_NAMED 1915-02-19 00:00:00 NR -24.5637 49.7516 main 242 242 _____P________ -1 -24.5637 49.7516 99 2 105
1915045S19038 1915 4 SI MM NOT_NAMED 1915-02-19 03:00:00 NR -24.5822 49.8277 main 242 242 _____P________ -1 -24.5822 49.8277 99 1 105
1915045S19038 1915 4 SI MM NOT_NAMED 1915-02-19 06:00:00 NR -24.6000 49.9000 reunion main 252 _____O________ -1 -24.6000 49.9000 99 9.90000 1 105

IBTrACS Databaseについて

本データベースは、米国NOAAが公開する1842年以降の世界の熱帯低気圧のベストトラックデータアーカイブInternational Best Track Archive for Climate Stewardship (IBTrACS)を、ウェブで閲覧しやすい形式に変換したものです。

最終更新日:2021-11-26